createdAt,value
2018-01-28T00:00:20.102Z,0
2018-01-28T00:01:20.353Z,0
2018-01-28T00:02:20.373Z,0
2018-01-28T00:03:20.127Z,0
2018-01-28T00:04:20.646Z,0
2018-01-28T00:05:20.654Z,0
2018-01-28T00:06:20.118Z,0
2018-01-28T00:07:20.195Z,0
2018-01-28T00:08:20.172Z,0
2018-01-28T00:09:20.463Z,0
2018-01-28T00:10:20.812Z,0
2018-01-28T00:11:20.492Z,0
2018-01-28T00:12:20.465Z,0
2018-01-28T00:13:19.992Z,0
2018-01-28T00:14:20.500Z,0
2018-01-28T00:15:20.539Z,0
2018-01-28T00:16:20.548Z,0
2018-01-28T00:17:20.311Z,0
2018-01-28T00:18:20.303Z,0
2018-01-28T00:19:20.937Z,0
2018-01-28T00:20:20.368Z,0
2018-01-28T00:21:20.653Z,0
2018-01-28T00:22:20.324Z,0
2018-01-28T00:23:20.358Z,0
2018-01-28T00:24:20.680Z,0
2018-01-28T00:25:20.695Z,0
2018-01-28T00:26:20.703Z,0
2018-01-28T00:27:20.448Z,0
2018-01-28T00:28:20.386Z,0
2018-01-28T00:29:20.486Z,0
2018-01-28T00:30:20.796Z,0
2018-01-28T00:31:20.729Z,0
2018-01-28T00:32:20.754Z,0
2018-01-28T00:33:20.771Z,0
2018-01-28T00:34:21.037Z,0
2018-01-28T00:35:20.532Z,0
2018-01-28T00:36:20.233Z,0
2018-01-28T00:37:20.869Z,0
2018-01-28T00:38:20.871Z,0
2018-01-28T00:39:20.540Z,0
2018-01-28T00:40:20.314Z,0
2018-01-28T00:41:21.198Z,0
2018-01-28T00:42:20.594Z,0
2018-01-28T00:43:20.891Z,0
2018-01-28T00:44:20.878Z,0
2018-01-28T00:45:20.922Z,0
2018-01-28T00:46:20.381Z,0
2018-01-28T00:47:20.814Z,0
2018-01-28T00:48:20.965Z,0
2018-01-28T00:49:20.686Z,0
2018-01-28T00:50:20.718Z,0
2018-01-28T00:51:21.025Z,0
2018-01-28T00:52:21.340Z,0
2018-01-28T00:53:21.024Z,0
2018-01-28T00:54:21.042Z,0
2018-01-28T00:55:20.797Z,0
2018-01-28T00:56:21.376Z,0
2018-01-28T00:57:21.079Z,0
2018-01-28T00:58:20.803Z,0
2018-01-28T00:59:21.426Z,0
2018-01-28T01:00:20.821Z,0
2018-01-28T01:01:21.273Z,0
2018-01-28T01:02:21.543Z,0
2018-01-28T01:03:21.205Z,0
2018-01-28T01:04:20.922Z,0
2018-01-28T01:05:20.871Z,0
2018-01-28T01:06:20.614Z,0
2018-01-28T01:07:21.270Z,0
2018-01-28T01:08:21.210Z,0
2018-01-28T01:09:21.244Z,0
2018-01-28T01:10:20.926Z,0
2018-01-28T01:11:21.219Z,0
2018-01-28T01:12:21.320Z,0
2018-01-28T01:13:21.288Z,0
2018-01-28T01:14:21.296Z,0
2018-01-28T01:15:21.074Z,0
2018-01-28T01:16:21.024Z,0
2018-01-28T01:17:21.367Z,0
2018-01-28T01:18:21.664Z,0
2018-01-28T01:19:21.356Z,0
2018-01-28T01:20:21.128Z,0
2018-01-28T01:21:21.416Z,0
2018-01-28T01:22:21.095Z,0
2018-01-28T01:23:20.831Z,0
2018-01-28T01:24:21.733Z,0
2018-01-28T01:25:20.857Z,0
2018-01-28T01:26:21.698Z,0
2018-01-28T01:27:21.470Z,0
2018-01-28T01:28:20.905Z,0
2018-01-28T01:29:21.253Z,0
2018-01-28T01:30:21.523Z,0
2018-01-28T01:31:21.847Z,0
2018-01-28T01:32:20.972Z,0
2018-01-28T01:33:20.980Z,0
2018-01-28T01:34:21.284Z,0
2018-01-28T01:35:21.587Z,0
2018-01-28T01:36:21.301Z,0
2018-01-28T01:37:22.650Z,0
2018-01-28T01:38:21.918Z,0
2018-01-28T01:39:21.572Z,0
2018-01-28T01:40:21.629Z,0
2018-01-28T01:41:21.093Z,0
2018-01-28T01:42:21.094Z,0
2018-01-28T01:43:21.668Z,0
2018-01-28T01:44:21.673Z,0
2018-01-28T01:45:22.009Z,0
2018-01-28T01:46:21.127Z,0
2018-01-28T01:47:21.737Z,0
2018-01-28T01:48:21.439Z,0
2018-01-28T01:49:21.742Z,0
2018-01-28T01:50:21.173Z,0
2018-01-28T01:51:21.475Z,0
2018-01-28T01:52:21.783Z,0
2018-01-28T01:53:21.525Z,0
2018-01-28T01:54:21.528Z,0
2018-01-28T01:55:21.793Z,0
2018-01-28T01:56:21.518Z,0
2018-01-28T01:57:22.163Z,0
2018-01-28T01:58:21.557Z,0
2018-01-28T01:59:21.557Z,0
2018-01-28T02:00:21.333Z,0
2018-01-28T02:01:21.899Z,0
2018-01-28T02:02:21.934Z,0
2018-01-28T02:03:21.360Z,0
2018-01-28T02:04:21.385Z,0
2018-01-28T02:05:22.310Z,0
2018-01-28T02:06:21.389Z,0
2018-01-28T02:07:22.013Z,0
2018-01-28T02:08:22.030Z,0
2018-01-28T02:09:22.023Z,0
2018-01-28T02:10:21.964Z,0
2018-01-28T02:11:22.073Z,0
2018-01-28T02:12:21.479Z,0
2018-01-28T02:13:21.731Z,0
2018-01-28T02:14:22.300Z,0
2018-01-28T02:15:21.516Z,0
2018-01-28T02:16:22.067Z,0
2018-01-28T02:17:21.829Z,0
2018-01-28T02:18:22.156Z,0
2018-01-28T02:19:21.869Z,0
2018-01-28T02:20:21.819Z,0
2018-01-28T02:21:22.107Z,0
2018-01-28T02:22:21.924Z,0
2018-01-28T02:23:21.628Z,0
2018-01-28T02:24:22.197Z,0
2018-01-28T02:25:21.913Z,0
2018-01-28T02:26:21.670Z,0
2018-01-28T02:27:21.978Z,0
2018-01-28T02:28:22.553Z,0
2018-01-28T02:29:21.997Z,0
2018-01-28T02:30:22.012Z,0
2018-01-28T02:31:22.308Z,0
2018-01-28T02:32:22.293Z,0
2018-01-28T02:33:22.320Z,0
2018-01-28T02:34:22.292Z,0
2018-01-28T02:35:22.315Z,0
2018-01-28T02:36:22.345Z,0
2018-01-28T02:37:21.795Z,0
2018-01-28T02:38:21.786Z,0
2018-01-28T02:39:22.101Z,0
2018-01-28T02:40:22.484Z,0
2018-01-28T02:41:22.413Z,0
2018-01-28T02:42:22.694Z,0
2018-01-28T02:43:22.126Z,0
2018-01-28T02:44:22.143Z,0
2018-01-28T02:45:22.435Z,0
2018-01-28T02:46:22.212Z,0
2018-01-28T02:47:22.216Z,0
2018-01-28T02:48:21.936Z,0
2018-01-28T02:49:22.535Z,0
2018-01-28T02:50:22.240Z,0
2018-01-28T02:51:22.244Z,0
2018-01-28T02:52:21.989Z,0
2018-01-28T02:53:22.291Z,0
2018-01-28T02:54:22.290Z,0
2018-01-28T02:55:22.590Z,0
2018-01-28T02:56:22.644Z,0
2018-01-28T02:57:22.581Z,0
2018-01-28T02:58:22.355Z,0
2018-01-28T02:59:22.669Z,0
2018-01-28T03:00:22.371Z,0
2018-01-28T03:01:22.401Z,0
2018-01-28T03:02:22.423Z,0
2018-01-28T03:03:22.416Z,0
2018-01-28T03:04:22.421Z,0
2018-01-28T03:05:22.729Z,0
2018-01-28T03:06:22.452Z,0
2018-01-28T03:07:23.016Z,0
2018-01-28T03:08:22.771Z,0
2018-01-28T03:09:22.251Z,0
2018-01-28T03:10:22.488Z,0
2018-01-28T03:11:22.818Z,0
2018-01-28T03:12:22.561Z,0
2018-01-28T03:13:22.822Z,0
2018-01-28T03:14:22.533Z,0
2018-01-28T03:15:22.830Z,0
2018-01-28T03:16:22.578Z,0
2018-01-28T03:17:23.124Z,0
2018-01-28T03:18:22.610Z,0
2018-01-28T03:19:22.902Z,0
2018-01-28T03:20:22.864Z,0
2018-01-28T03:21:22.368Z,0
2018-01-28T03:22:22.901Z,0
2018-01-28T03:23:22.680Z,0
2018-01-28T03:24:23.258Z,0
2018-01-28T03:25:22.399Z,0
2018-01-28T03:26:23.009Z,0
2018-01-28T03:27:22.751Z,0
2018-01-28T03:28:22.704Z,0
2018-01-28T03:29:23.033Z,0
2018-01-28T03:30:22.496Z,0
2018-01-28T03:31:23.261Z,0
2018-01-28T03:32:23.338Z,0
2018-01-28T03:33:23.127Z,0
2018-01-28T03:34:23.363Z,0
2018-01-28T03:35:23.085Z,0
2018-01-28T03:36:23.098Z,0
2018-01-28T03:37:23.463Z,0
2018-01-28T03:38:23.146Z,0
2018-01-28T03:39:23.136Z,0
2018-01-28T03:40:22.878Z,0
2018-01-28T03:41:23.172Z,0
2018-01-28T03:42:22.912Z,0
2018-01-28T03:43:22.987Z,0
2018-01-28T03:44:22.890Z,0
2018-01-28T03:45:22.913Z,0
2018-01-28T03:46:23.272Z,0
2018-01-28T03:47:22.647Z,0
2018-01-28T03:48:23.725Z,0
2018-01-28T03:49:23.593Z,0
2018-01-28T03:50:22.707Z,0
2018-01-28T03:51:23.294Z,0
2018-01-28T03:52:23.607Z,0
2018-01-28T03:53:23.349Z,0
2018-01-28T03:54:23.610Z,0
2018-01-28T03:55:23.072Z,0
2018-01-28T03:56:23.078Z,0
2018-01-28T03:57:23.099Z,0
2018-01-28T03:58:23.751Z,0
2018-01-28T03:59:23.148Z,0
2018-01-28T04:00:23.725Z,0
2018-01-28T04:01:23.412Z,0
2018-01-28T04:02:23.176Z,0
2018-01-28T04:03:22.884Z,0
2018-01-28T04:04:23.478Z,0
2018-01-28T04:05:23.498Z,0
2018-01-28T04:06:23.800Z,0
2018-01-28T04:07:23.224Z,0
2018-01-28T04:08:23.281Z,0
2018-01-28T04:09:23.544Z,0
2018-01-28T04:10:23.242Z,0
2018-01-28T04:11:23.613Z,0
2018-01-28T04:12:23.292Z,0
2018-01-28T04:13:23.643Z,0
2018-01-28T04:14:23.582Z,0
2018-01-28T04:15:23.665Z,0
2018-01-28T04:16:23.341Z,0
2018-01-28T04:17:23.349Z,0
2018-01-28T04:18:23.724Z,0
2018-01-28T04:19:23.681Z,0
2018-01-28T04:20:23.943Z,0
2018-01-28T04:21:23.371Z,0
2018-01-28T04:22:23.116Z,0
2018-01-28T04:23:23.713Z,0
2018-01-28T04:24:23.122Z,0
2018-01-28T04:25:23.465Z,0
2018-01-28T04:26:24.031Z,0
2018-01-28T04:27:23.468Z,0
2018-01-28T04:28:23.825Z,0
2018-01-28T04:29:23.484Z,0
2018-01-28T04:30:23.520Z,0
2018-01-28T04:31:23.511Z,0
2018-01-28T04:32:23.881Z,0
2018-01-28T04:33:23.650Z,0
2018-01-28T04:34:23.546Z,0
2018-01-28T04:35:24.179Z,0
2018-01-28T04:36:23.595Z,0
2018-01-28T04:37:23.898Z,0
2018-01-28T04:38:23.986Z,0
2018-01-28T04:39:24.196Z,0
2018-01-28T04:40:24.183Z,0
2018-01-28T04:41:23.658Z,0
2018-01-28T04:42:23.696Z,0
2018-01-28T04:43:23.922Z,0
2018-01-28T04:44:23.701Z,0
2018-01-28T04:45:23.694Z,0
2018-01-28T04:46:23.714Z,0
2018-01-28T04:47:23.757Z,0
2018-01-28T04:48:23.892Z,0
2018-01-28T04:49:23.752Z,0
2018-01-28T04:50:24.111Z,0
2018-01-28T04:51:23.509Z,0
2018-01-28T04:52:24.048Z,0
2018-01-28T04:53:23.807Z,0
2018-01-28T04:54:23.900Z,0
2018-01-28T04:55:23.550Z,0
2018-01-28T04:56:23.860Z,0
2018-01-28T04:57:23.898Z,0
2018-01-28T04:58:24.332Z,0
2018-01-28T04:59:24.213Z,0
2018-01-28T05:00:24.225Z,0
2018-01-28T05:01:23.873Z,0
2018-01-28T05:02:23.972Z,0
2018-01-28T05:03:23.911Z,0
2018-01-28T05:04:24.190Z,0
2018-01-28T05:05:23.945Z,0
2018-01-28T05:06:24.536Z,0
2018-01-28T05:07:23.961Z,0
2018-01-28T05:08:24.524Z,0
2018-01-28T05:09:24.012Z,0
2018-01-28T05:10:24.303Z,0
2018-01-28T05:11:24.354Z,0
2018-01-28T05:12:24.358Z,0
2018-01-28T05:13:24.376Z,0
2018-01-28T05:14:24.104Z,0
2018-01-28T05:15:24.633Z,0
2018-01-28T05:16:23.848Z,0
2018-01-28T05:17:24.115Z,0
2018-01-28T05:18:24.164Z,0
2018-01-28T05:19:24.762Z,0
2018-01-28T05:20:24.175Z,0
2018-01-28T05:21:24.425Z,0
2018-01-28T05:22:24.453Z,0
2018-01-28T05:23:24.487Z,0
2018-01-28T05:24:24.714Z,0
2018-01-28T05:25:24.240Z,0
2018-01-28T05:26:24.265Z,0
2018-01-28T05:27:24.272Z,0
2018-01-28T05:28:24.225Z,0
2018-01-28T05:29:24.802Z,0
2018-01-28T05:30:24.592Z,0
2018-01-28T05:31:24.336Z,0
2018-01-28T05:32:24.905Z,0
2018-01-28T05:33:24.317Z,0
2018-01-28T05:34:24.658Z,0
2018-01-28T05:35:24.365Z,0
2018-01-28T05:36:24.954Z,0
2018-01-28T05:37:24.688Z,0
2018-01-28T05:38:24.632Z,0
2018-01-28T05:39:24.737Z,0
2018-01-28T05:40:24.936Z,0
2018-01-28T05:41:24.733Z,0
2018-01-28T05:42:25.060Z,0
2018-01-28T05:43:24.155Z,0
2018-01-28T05:44:24.541Z,0
2018-01-28T05:45:24.772Z,0
2018-01-28T05:46:25.080Z,0
2018-01-28T05:47:24.259Z,0
2018-01-28T05:48:24.520Z,0
2018-01-28T05:49:25.143Z,0
2018-01-28T05:50:24.561Z,0
2018-01-28T05:51:25.091Z,0
2018-01-28T05:52:24.574Z,0
2018-01-28T05:53:24.630Z,0
2018-01-28T05:54:24.907Z,0
2018-01-28T05:55:24.922Z,0
2018-01-28T05:56:24.614Z,0
2018-01-28T05:57:24.976Z,0
2018-01-28T05:58:25.232Z,0
2018-01-28T05:59:24.644Z,0
2018-01-28T06:00:25.271Z,0
2018-01-28T06:01:24.958Z,0
2018-01-28T06:02:24.682Z,0
2018-01-28T06:03:25.040Z,0
2018-01-28T06:04:25.275Z,0
2018-01-28T06:05:24.811Z,0
2018-01-28T06:06:25.417Z,0
2018-01-28T06:07:25.069Z,0
2018-01-28T06:08:24.772Z,0
2018-01-28T06:09:25.030Z,0
2018-01-28T06:10:25.374Z,0
2018-01-28T06:11:24.813Z,0
2018-01-28T06:12:24.552Z,0
2018-01-28T06:13:24.565Z,0
2018-01-28T06:14:25.309Z,0
2018-01-28T06:15:25.191Z,0
2018-01-28T06:16:24.888Z,0
2018-01-28T06:17:25.149Z,0
2018-01-28T06:18:24.929Z,0
2018-01-28T06:19:24.910Z,0
2018-01-28T06:20:24.897Z,0
2018-01-28T06:21:24.960Z,0
2018-01-28T06:22:25.224Z,0
2018-01-28T06:23:25.228Z,0
2018-01-28T06:24:25.237Z,0
2018-01-28T06:25:25.680Z,0
2018-01-28T06:26:25.005Z,0
2018-01-28T06:27:24.736Z,0
2018-01-28T06:28:25.287Z,0
2018-01-28T06:29:25.345Z,0
2018-01-28T06:30:25.107Z,0
2018-01-28T06:31:25.703Z,0
2018-01-28T06:32:25.394Z,0
2018-01-28T06:33:25.353Z,0
2018-01-28T06:34:25.106Z,0
2018-01-28T06:35:25.489Z,0
2018-01-28T06:36:25.112Z,0
2018-01-28T06:37:25.160Z,0
2018-01-28T06:38:25.161Z,0
2018-01-28T06:39:25.173Z,4
2018-01-28T06:40:25.207Z,4
2018-01-28T06:41:25.490Z,0
2018-01-28T06:42:25.217Z,0
2018-01-28T06:43:25.793Z,4
2018-01-28T06:44:25.271Z,4
2018-01-28T06:45:25.516Z,4
2018-01-28T06:46:25.310Z,4
2018-01-28T06:47:25.300Z,4
2018-01-28T06:48:25.563Z,8
2018-01-28T06:49:25.315Z,8
2018-01-28T06:50:25.895Z,8
2018-01-28T06:51:26.462Z,8
2018-01-28T06:52:25.634Z,8
2018-01-28T06:53:25.639Z,12
2018-01-28T06:54:25.675Z,12
2018-01-28T06:55:25.400Z,12
2018-01-28T06:56:25.669Z,16
2018-01-28T06:57:25.678Z,16
2018-01-28T06:58:25.980Z,16
2018-01-28T06:59:25.734Z,20
2018-01-28T07:00:25.808Z,16
2018-01-28T07:01:25.463Z,16
2018-01-28T07:02:25.850Z,16
2018-01-28T07:03:25.774Z,20
2018-01-28T07:04:25.535Z,20
2018-01-28T07:05:25.824Z,24
2018-01-28T07:06:25.563Z,28
2018-01-28T07:07:25.568Z,36
2018-01-28T07:08:25.574Z,32
2018-01-28T07:09:25.868Z,28
2018-01-28T07:10:26.231Z,36
2018-01-28T07:11:25.321Z,36
2018-01-28T07:12:25.851Z,36
2018-01-28T07:13:25.963Z,40
2018-01-28T07:14:25.393Z,36
2018-01-28T07:15:26.004Z,48
2018-01-28T07:16:25.949Z,52
2018-01-28T07:17:25.915Z,56
2018-01-28T07:18:25.696Z,44
2018-01-28T07:19:25.666Z,64
2018-01-28T07:20:25.461Z,56
2018-01-28T07:21:26.057Z,52
2018-01-28T07:22:25.710Z,56
2018-01-28T07:23:25.800Z,60
2018-01-28T07:24:25.750Z,64
2018-01-28T07:25:26.111Z,48
2018-01-28T07:26:25.514Z,60
2018-01-28T07:27:25.803Z,72
2018-01-28T07:28:26.155Z,56
2018-01-28T07:29:26.429Z,68
2018-01-28T07:30:26.195Z,72
2018-01-28T07:31:26.146Z,76
2018-01-28T07:32:26.117Z,92
2018-01-28T07:33:26.169Z,88
2018-01-28T07:34:26.464Z,84
2018-01-28T07:35:25.991Z,84
2018-01-28T07:36:26.244Z,88
2018-01-28T07:37:25.964Z,88
2018-01-28T07:38:26.233Z,96
2018-01-28T07:39:26.234Z,100
2018-01-28T07:40:26.281Z,116
2018-01-28T07:41:26.003Z,132
2018-01-28T07:42:26.279Z,132
2018-01-28T07:43:25.988Z,152
2018-01-28T07:44:26.035Z,160
2018-01-28T07:45:26.073Z,176
2018-01-28T07:46:26.619Z,164
2018-01-28T07:47:26.350Z,184
2018-01-28T07:48:26.052Z,208
2018-01-28T07:49:26.118Z,172
2018-01-28T07:50:26.379Z,168
2018-01-28T07:51:26.117Z,180
2018-01-28T07:52:26.124Z,204
2018-01-28T07:53:26.713Z,164
2018-01-28T07:54:26.463Z,184
2018-01-28T07:55:25.866Z,216
2018-01-28T07:56:26.480Z,224
2018-01-28T07:57:26.224Z,232
2018-01-28T07:58:26.223Z,240
2018-01-28T07:59:26.776Z,260
2018-01-28T08:00:27.010Z,272
2018-01-28T08:01:26.534Z,240
2018-01-28T08:02:26.602Z,232
2018-01-28T08:03:26.572Z,256
2018-01-28T08:04:26.600Z,208
2018-01-28T08:05:26.060Z,200
2018-01-28T08:06:26.643Z,268
2018-01-28T08:07:26.348Z,292
2018-01-28T08:08:26.586Z,296
2018-01-28T08:09:26.977Z,276
2018-01-28T08:10:26.966Z,160
2018-01-28T08:11:26.404Z,220
2018-01-28T08:12:26.429Z,188
2018-01-28T08:13:26.753Z,280
2018-01-28T08:14:26.713Z,212
2018-01-28T08:15:26.783Z,264
2018-01-28T08:16:26.783Z,268
2018-01-28T08:17:26.746Z,336
2018-01-28T08:18:26.791Z,292
2018-01-28T08:19:27.080Z,352
2018-01-28T08:20:26.812Z,364
2018-01-28T08:21:26.820Z,332
2018-01-28T08:22:26.231Z,372
2018-01-28T08:23:27.126Z,360
2018-01-28T08:24:26.847Z,404
2018-01-28T08:25:27.003Z,528
2018-01-28T08:26:26.604Z,504
2018-01-28T08:27:26.588Z,448
2018-01-28T08:28:26.599Z,488
2018-01-28T08:29:26.380Z,508
2018-01-28T08:30:26.669Z,456
2018-01-28T08:31:27.237Z,464
2018-01-28T08:32:27.233Z,504
2018-01-28T08:33:27.026Z,476
2018-01-28T08:34:27.013Z,524
2018-01-28T08:35:27.038Z,560
2018-01-28T08:36:26.688Z,516
2018-01-28T08:37:26.771Z,532
2018-01-28T08:38:27.078Z,556
2018-01-28T08:39:26.769Z,588
2018-01-28T08:40:27.106Z,544
2018-01-28T08:41:26.485Z,512
2018-01-28T08:42:26.820Z,536
2018-01-28T08:43:26.858Z,580
2018-01-28T08:44:27.127Z,484
2018-01-28T08:45:26.897Z,612
2018-01-28T08:46:26.880Z,604
2018-01-28T08:47:27.464Z,600
2018-01-28T08:48:27.476Z,652
2018-01-28T08:49:26.937Z,604
2018-01-28T08:50:27.207Z,600
2018-01-28T08:51:27.158Z,620
2018-01-28T08:52:26.923Z,608
2018-01-28T08:53:26.925Z,548
2018-01-28T08:54:27.515Z,488
2018-01-28T08:55:27.552Z,500
2018-01-28T08:56:27.228Z,492
2018-01-28T08:57:27.015Z,560
2018-01-28T08:58:27.315Z,588
2018-01-28T08:59:27.346Z,552
2018-01-28T09:00:27.003Z,616
2018-01-28T09:01:27.044Z,652
2018-01-28T09:02:27.037Z,664
2018-01-28T09:03:27.082Z,748
2018-01-28T09:04:27.086Z,744
2018-01-28T09:05:27.089Z,656
2018-01-28T09:06:27.424Z,780
2018-01-28T09:07:27.418Z,660
2018-01-28T09:08:27.466Z,664
2018-01-28T09:09:27.456Z,584
2018-01-28T09:10:27.164Z,768
2018-01-28T09:11:27.752Z,592
2018-01-28T09:12:27.484Z,772
2018-01-28T09:13:27.221Z,808
2018-01-28T09:14:26.951Z,824
2018-01-28T09:15:27.257Z,832
2018-01-28T09:16:27.597Z,1004
2018-01-28T09:17:27.827Z,964
2018-01-28T09:18:27.589Z,896
2018-01-28T09:19:27.613Z,960
2018-01-28T09:20:28.063Z,872
2018-01-28T09:21:27.348Z,636
2018-01-28T09:22:27.623Z,720
2018-01-28T09:23:27.614Z,800
2018-01-28T09:24:27.936Z,896
2018-01-28T09:25:27.939Z,684
2018-01-28T09:26:28.023Z,632
2018-01-28T09:27:27.384Z,748
2018-01-28T09:28:27.202Z,756
2018-01-28T09:29:27.438Z,836
2018-01-28T09:30:27.456Z,880
2018-01-28T09:31:27.737Z,936
2018-01-28T09:32:27.816Z,968
2018-01-28T09:33:27.783Z,956
2018-01-28T09:34:27.830Z,852
2018-01-28T09:35:27.553Z,808
2018-01-28T09:36:27.236Z,836
2018-01-28T09:37:27.541Z,824
2018-01-28T09:38:27.855Z,864
2018-01-28T09:39:27.869Z,904
2018-01-28T09:40:27.602Z,824
2018-01-28T09:41:28.196Z,944
2018-01-28T09:42:27.922Z,976
2018-01-28T09:43:27.660Z,864
2018-01-28T09:44:27.977Z,940
2018-01-28T09:45:27.964Z,916
2018-01-28T09:46:28.001Z,1024
2018-01-28T09:47:27.970Z,1028
2018-01-28T09:48:27.697Z,1012
2018-01-28T09:49:28.250Z,1132
2018-01-28T09:50:28.048Z,1052
2018-01-28T09:51:27.816Z,968
2018-01-28T09:52:28.326Z,720
2018-01-28T09:53:28.050Z,1068
2018-01-28T09:54:28.117Z,1004
2018-01-28T09:55:28.061Z,1080
2018-01-28T09:56:28.126Z,1108
2018-01-28T09:57:28.099Z,1260
2018-01-28T09:58:28.173Z,1312
2018-01-28T09:59:28.161Z,1272
2018-01-28T10:00:27.936Z,1192
2018-01-28T10:01:28.254Z,1100
2018-01-28T10:02:27.621Z,1060
2018-01-28T10:03:27.605Z,1196
2018-01-28T10:04:27.943Z,872
2018-01-28T10:05:28.505Z,904
2018-01-28T10:06:28.246Z,1020
2018-01-28T10:07:28.535Z,840
2018-01-28T10:08:27.966Z,900
2018-01-28T10:09:27.711Z,932
2018-01-28T10:10:27.985Z,880
2018-01-28T10:11:28.376Z,1028
2018-01-28T10:12:28.036Z,1072
2018-01-28T10:13:28.114Z,1108
2018-01-28T10:14:28.321Z,1264
2018-01-28T10:15:28.046Z,1032
2018-01-28T10:16:28.080Z,1244
2018-01-28T10:17:28.126Z,1172
2018-01-28T10:18:28.416Z,1164
2018-01-28T10:19:28.468Z,1136
2018-01-28T10:20:28.181Z,1232
2018-01-28T10:21:28.168Z,1116
2018-01-28T10:22:28.267Z,1180
2018-01-28T10:23:28.528Z,1188
2018-01-28T10:24:27.917Z,1112
2018-01-28T10:25:28.243Z,1240
2018-01-28T10:26:28.580Z,1052
2018-01-28T10:27:28.816Z,1020
2018-01-28T10:28:28.550Z,808
2018-01-28T10:29:28.301Z,980
2018-01-28T10:30:28.309Z,1160
2018-01-28T10:31:28.331Z,952
2018-01-28T10:32:29.163Z,748
2018-01-28T10:33:28.941Z,824
2018-01-28T10:34:28.929Z,792
2018-01-28T10:35:28.684Z,684
2018-01-28T10:36:28.573Z,620
2018-01-28T10:37:28.408Z,732
2018-01-28T10:38:28.980Z,664
2018-01-28T10:39:28.427Z,716
2018-01-28T10:40:28.754Z,696
2018-01-28T10:41:28.436Z,756
2018-01-28T10:42:28.780Z,828
2018-01-28T10:43:29.108Z,636
2018-01-28T10:44:28.844Z,708
2018-01-28T10:45:28.550Z,680
2018-01-28T10:46:28.893Z,596
2018-01-28T10:47:28.565Z,560
2018-01-28T10:48:28.845Z,496
2018-01-28T10:49:28.861Z,416
2018-01-28T10:50:28.920Z,504
2018-01-28T10:51:28.969Z,400
2018-01-28T10:52:29.421Z,524
2018-01-28T10:53:28.978Z,464
2018-01-28T10:54:28.666Z,380
2018-01-28T10:55:28.666Z,460
2018-01-28T10:56:28.983Z,460
2018-01-28T10:57:29.338Z,396
2018-01-28T10:58:28.426Z,388
2018-01-28T10:59:28.471Z,472
2018-01-28T11:00:28.780Z,384
2018-01-28T11:01:29.040Z,444
2018-01-28T11:02:28.894Z,444
2018-01-28T11:03:28.819Z,520
2018-01-28T11:04:28.805Z,476
2018-01-28T11:05:28.825Z,396
2018-01-28T11:06:28.823Z,420
2018-01-28T11:07:29.088Z,544
2018-01-28T11:08:29.447Z,544
2018-01-28T11:09:28.884Z,432
2018-01-28T11:10:29.715Z,472
2018-01-28T11:11:29.278Z,636
2018-01-28T11:12:29.435Z,616
2018-01-28T11:13:28.977Z,548
2018-01-28T11:14:28.625Z,560
2018-01-28T11:15:28.968Z,608
2018-01-28T11:16:29.285Z,488
2018-01-28T11:17:29.298Z,472
2018-01-28T11:18:28.989Z,404
2018-01-28T11:19:29.332Z,344
2018-01-28T11:20:29.350Z,304
2018-01-28T11:21:29.112Z,324
2018-01-28T11:22:29.657Z,300
2018-01-28T11:23:28.769Z,300
2018-01-28T11:24:29.104Z,316
2018-01-28T11:25:29.409Z,400
2018-01-28T11:26:29.441Z,376
2018-01-28T11:27:29.721Z,396
2018-01-28T11:28:29.495Z,420
2018-01-28T11:29:29.492Z,328
2018-01-28T11:30:29.196Z,384
2018-01-28T11:31:29.595Z,296
2018-01-28T11:32:29.453Z,352
2018-01-28T11:33:29.250Z,400
2018-01-28T11:34:29.255Z,468
2018-01-28T11:35:29.260Z,460
2018-01-28T11:36:29.586Z,432
2018-01-28T11:37:29.488Z,440
2018-01-28T11:38:29.310Z,476
2018-01-28T11:39:29.278Z,508
2018-01-28T11:40:29.659Z,472
2018-01-28T11:41:29.342Z,476
2018-01-28T11:42:29.877Z,416
2018-01-28T11:43:29.693Z,400
2018-01-28T11:44:29.345Z,376
2018-01-28T11:45:29.659Z,420
2018-01-28T11:46:29.738Z,416
2018-01-28T11:47:30.052Z,392
2018-01-28T11:48:30.005Z,356
2018-01-28T11:49:29.811Z,316
2018-01-28T11:50:30.039Z,300
2018-01-28T11:51:29.518Z,280
2018-01-28T11:52:30.030Z,296
2018-01-28T11:53:30.066Z,280
2018-01-28T11:54:29.818Z,320
2018-01-28T11:55:30.069Z,304
2018-01-28T11:56:29.882Z,300
2018-01-28T11:57:29.607Z,372
2018-01-28T11:58:29.294Z,424
2018-01-28T11:59:29.609Z,316
2018-01-28T12:00:29.611Z,268
2018-01-28T12:01:29.948Z,240
2018-01-28T12:02:29.967Z,284
2018-01-28T12:03:29.997Z,272
2018-01-28T12:04:29.947Z,264
2018-01-28T12:05:29.729Z,296
2018-01-28T12:06:30.033Z,272
2018-01-28T12:07:29.443Z,328
2018-01-28T12:08:29.470Z,564
2018-01-28T12:09:30.093Z,976
2018-01-28T12:10:29.726Z,980
2018-01-28T12:11:30.039Z,560
2018-01-28T12:12:30.110Z,428
2018-01-28T12:13:30.084Z,412
2018-01-28T12:14:29.778Z,436
2018-01-28T12:15:29.841Z,336
2018-01-28T12:16:30.187Z,256
2018-01-28T12:17:30.176Z,288
2018-01-28T12:18:30.155Z,236
2018-01-28T12:19:29.940Z,284
2018-01-28T12:20:29.879Z,408
2018-01-28T12:21:29.938Z,388
2018-01-28T12:22:30.508Z,380
2018-01-28T12:23:29.967Z,488
2018-01-28T12:24:29.679Z,468
2018-01-28T12:25:29.984Z,440
2018-01-28T12:26:30.558Z,428
2018-01-28T12:27:30.026Z,804
2018-01-28T12:28:30.047Z,852
2018-01-28T12:29:30.017Z,584
2018-01-28T12:30:29.759Z,500
2018-01-28T12:31:30.075Z,480
2018-01-28T12:32:30.357Z,500
2018-01-28T12:33:30.093Z,664
2018-01-28T12:34:30.385Z,536
2018-01-28T12:35:30.401Z,404
2018-01-28T12:36:30.427Z,368
2018-01-28T12:37:29.858Z,416
2018-01-28T12:38:30.483Z,400
2018-01-28T12:39:30.724Z,456
2018-01-28T12:40:30.473Z,420
2018-01-28T12:41:30.502Z,380
2018-01-28T12:42:30.308Z,428
2018-01-28T12:43:30.547Z,364
2018-01-28T12:44:30.275Z,384
2018-01-28T12:45:30.795Z,316
2018-01-28T12:46:30.258Z,344
2018-01-28T12:47:30.635Z,304
2018-01-28T12:48:30.288Z,276
2018-01-28T12:49:30.330Z,368
2018-01-28T12:50:30.919Z,452
2018-01-28T12:51:30.386Z,340
2018-01-28T12:52:31.148Z,276
2018-01-28T12:53:30.382Z,332
2018-01-28T12:54:31.023Z,292
2018-01-28T12:55:30.724Z,224
2018-01-28T12:56:30.710Z,272
2018-01-28T12:57:30.594Z,308
2018-01-28T12:58:30.477Z,276
2018-01-28T12:59:30.458Z,360
2018-01-28T13:00:30.516Z,348
2018-01-28T13:01:30.839Z,376
2018-01-28T13:02:30.860Z,352
2018-01-28T13:03:30.561Z,264
2018-01-28T13:04:30.873Z,252
2018-01-28T13:05:30.876Z,236
2018-01-28T13:06:30.941Z,264
2018-01-28T13:07:30.918Z,248
2018-01-28T13:08:30.853Z,240
2018-01-28T13:09:30.628Z,244
2018-01-28T13:10:30.955Z,228
2018-01-28T13:11:31.237Z,252
2018-01-28T13:12:30.688Z,256
2018-01-28T13:13:30.685Z,256
2018-01-28T13:14:31.251Z,424
2018-01-28T13:15:31.020Z,304
2018-01-28T13:16:31.040Z,244
2018-01-28T13:17:30.785Z,252
2018-01-28T13:18:31.386Z,268
2018-01-28T13:19:31.399Z,300
2018-01-28T13:20:31.058Z,304
2018-01-28T13:21:31.120Z,256
2018-01-28T13:22:30.991Z,372
2018-01-28T13:23:30.798Z,320
2018-01-28T13:24:31.148Z,328
2018-01-28T13:25:31.392Z,324
2018-01-28T13:26:30.574Z,376
2018-01-28T13:27:30.907Z,300
2018-01-28T13:28:31.189Z,256
2018-01-28T13:29:31.588Z,348
2018-01-28T13:30:31.203Z,440
2018-01-28T13:31:30.926Z,488
2018-01-28T13:32:31.018Z,356
2018-01-28T13:33:32.189Z,312
2018-01-28T13:34:31.005Z,324
2018-01-28T13:35:30.727Z,316
2018-01-28T13:36:31.298Z,292
2018-01-28T13:37:31.323Z,248
2018-01-28T13:38:31.341Z,272
2018-01-28T13:39:31.110Z,328
2018-01-28T13:40:31.662Z,312
2018-01-28T13:41:31.083Z,272
2018-01-28T13:42:31.705Z,268
2018-01-28T13:43:31.425Z,256
2018-01-28T13:44:31.109Z,228
2018-01-28T13:45:31.153Z,268
2018-01-28T13:46:31.499Z,236
2018-01-28T13:47:31.746Z,324
2018-01-28T13:48:31.531Z,260
2018-01-28T13:49:31.203Z,352
2018-01-28T13:50:30.940Z,272
2018-01-28T13:51:31.530Z,256
2018-01-28T13:52:31.276Z,248
2018-01-28T13:53:31.552Z,280
2018-01-28T13:54:31.293Z,308
2018-01-28T13:55:31.580Z,240
2018-01-28T13:56:31.058Z,236
2018-01-28T13:57:31.297Z,204
2018-01-28T13:58:31.927Z,208
2018-01-28T13:59:31.662Z,212
2018-01-28T14:00:31.951Z,252
2018-01-28T14:01:31.671Z,256
2018-01-28T14:02:31.423Z,292
2018-01-28T14:03:31.428Z,272
2018-01-28T14:04:31.927Z,308
2018-01-28T14:05:31.484Z,212
2018-01-28T14:06:31.496Z,232
2018-01-28T14:07:31.223Z,216
2018-01-28T14:08:31.509Z,224
2018-01-28T14:09:31.582Z,204
2018-01-28T14:10:32.148Z,284
2018-01-28T14:11:31.503Z,208
2018-01-28T14:12:31.572Z,288
2018-01-28T14:13:31.871Z,176
2018-01-28T14:14:31.579Z,200